This is the latest recevied weather packets stored in our database for station/object SP2WM. If no packets are shown the sender has not sent any weather packets the latest 10 day(s).
| Time | Temp. | Humidity | Pressure | Rain* | Wind** | Luminosity | Snow |
|---|---|---|---|---|---|---|---|
| 1777579824 | 10° C | 63% | 1024.3 hPa | 0 mm | - | - | - |
| 1777577421 | 12.22° C | 59% | 1024.2 hPa | 0 mm | - | - | - |
| 1777576826 | 12.22° C | 58% | 1024.4 hPa | 0 mm | - | - | - |
| 1777576224 | 12.22° C | 57% | 1024.2 hPa | 0 mm | - | - | - |
| 1777575626 | 12.78° C | 55% | 1024.2 hPa | 0 mm | - | - | - |
| 1777575028 | 12.78° C | 56% | 1024.4 hPa | 0 mm | - | - | - |
| 1777574431 | 12.78° C | 55% | 1024.4 hPa | 0 mm | - | - | - |
| 1777573234 | 13.33° C | 54% | 1024.4 hPa | 0 mm | - | - | - |
| 1777572633 | 13.89° C | 53% | 1024.4 hPa | 0 mm | - | - | - |
| 1777568419 | 14.44° C | 47% | 1024.5 hPa | 0 mm | - | - | - |
| 1777566638 | 14.44° C | 47% | 1024.5 hPa | 0 mm | - | - | - |
| 1777566039 | 15° C | 46% | 1024.6 hPa | 0 mm | - | - | - |
| 1777565419 | 15° C | 46% | 1024.7 hPa | 0 mm | - | - | - |
| 1777564228 | 15° C | 45% | 1024.8 hPa | 0 mm | - | - | - |
| 1777563027 | 15° C | 43% | 1024.8 hPa | 0 mm | - | - | - |
| 1777562429 | 15.56° C | 42% | 1024.8 hPa | 0 mm | - | - | - |
| 1777559433 | 16.67° C | 37% | 1025.2 hPa | 0 mm | - | - | - |
| 1777558219 | 18.33° C | 34% | 1025.3 hPa | 0 mm | - | - | - |
| 1777555822 | 16.11° C | 36% | 1025.8 hPa | 0 mm | - | - | - |
| 1777555224 | 16.11° C | 35% | 1025.9 hPa | 0 mm | - | - | - |
| 1777554622 | 14.44° C | 37% | 1025.9 hPa | 0 mm | - | - | - |
| 1777552225 | 15° C | 36% | 1026.6 hPa | 0 mm | - | - | - |
| 1777551626 | 15.56° C | 35% | 1026.7 hPa | 0 mm | - | - | - |
| 1777551029 | 13.89° C | 38% | 1026.8 hPa | 0 mm | - | - | - |
| 1777547434 | 14.44° C | 33% | 1027.2 hPa | 0 mm | - | - | - |
* Rain latest hour (hover to see other rain measurements)
** Current wind speed in m/s (hover to see current wind gust speed)